Time,TemperatureF,DewpointF,PressureIn,WindDirection,WindDirectionDegrees,WindSpeedMPH,WindSpeedGustMPH,Humidity,HourlyPrecipIn,Conditions,Clouds,dailyrainin,SoftwareType,DateUTC
2013-06-17 00:01:00,63.7,60.1,29.89,SW,218,0.0,2.0,88,0.00,,,0.51,meteohub,2013-06-17 04:01:00,
2013-06-17 00:02:00,63.7,60.1,29.89,SW,218,0.0,2.0,88,0.00,,,0.51,meteohub,2013-06-17 04:02:00,
2013-06-17 00:08:00,63.7,59.7,29.89,SW,218,0.0,2.0,87,0.00,,,0.00,meteohub,2013-06-17 04:08:00,
2013-06-17 00:13:00,63.3,59.7,29.90,SW,218,0.0,2.0,88,0.00,,,0.00,meteohub,2013-06-17 04:13:00,
2013-06-17 00:18:00,63.1,59.9,29.90,South,176,0.0,1.0,89,0.00,,,0.00,meteohub,2013-06-17 04:18:00,
2013-06-17 00:23:00,63.1,59.9,29.90,SSE,160,0.0,1.0,89,0.00,,,0.00,meteohub,2013-06-17 04:23:00,
2013-06-17 00:28:00,63.0,59.7,29.90,East,100,1.0,1.0,89,0.00,,,0.00,meteohub,2013-06-17 04:28:00,
2013-06-17 00:33:00,63.0,59.7,29.90,ESE,102,1.0,1.0,89,0.00,,,0.00,meteohub,2013-06-17 04:33:00,
2013-06-17 00:38:00,63.0,59.7,29.90,East,99,1.0,3.0,89,0.00,,,0.00,meteohub,2013-06-17 04:38:00,
2013-06-17 00:44:00,63.1,59.9,29.91,East,99,0.0,3.0,89,0.00,,,0.00,meteohub,2013-06-17 04:44:00,
2013-06-17 00:49:00,63.1,59.9,29.91,East,99,1.0,3.0,89,0.00,,,0.00,meteohub,2013-06-17 04:49:00,
2013-06-17 00:54:00,63.0,59.7,29.91,East,98,0.0,2.0,89,0.00,,,0.00,meteohub,2013-06-17 04:54:00,
2013-06-17 00:59:00,62.4,59.2,29.91,East,98,0.0,1.0,89,0.00,,,0.00,meteohub,2013-06-17 04:59:00,
2013-06-17 01:04:00,62.2,59.5,29.91,ESE,110,1.0,1.0,91,0.00,,,0.00,meteohub,2013-06-17 05:04:00,
2013-06-17 01:09:00,62.1,59.4,29.91,ESE,103,2.0,2.0,91,0.00,,,0.00,meteohub,2013-06-17 05:09:00,
2013-06-17 01:15:00,62.1,59.4,29.91,ESE,108,2.0,2.0,91,0.00,,,0.00,meteohub,2013-06-17 05:15:00,
2013-06-17 01:20:00,62.1,59.4,29.91,ESE,110,1.0,2.0,91,0.00,,,0.00,meteohub,2013-06-17 05:20:00,
2013-06-17 01:25:00,62.1,59.4,29.91,East,101,0.0,2.0,91,0.00,,,0.00,meteohub,2013-06-17 05:25:00,
2013-06-17 01:30:00,62.1,59.4,29.90,ESE,110,2.0,2.0,91,0.00,,,0.00,meteohub,2013-06-17 05:30:00,
2013-06-17 01:35:00,61.9,59.2,29.90,East,101,2.0,2.0,91,0.00,,,0.00,meteohub,2013-06-17 05:35:00,
2013-06-17 01:40:00,61.5,59.2,29.90,East,96,2.0,3.0,92,0.00,,,0.00,meteohub,2013-06-17 05:40:00,
2013-06-17 01:45:00,61.3,59.0,29.90,East,80,1.0,3.0,92,0.00,,,0.00,meteohub,2013-06-17 05:45:00,
2013-06-17 01:50:00,61.3,59.4,29.90,ESE,110,2.0,2.0,93,0.00,,,0.00,meteohub,2013-06-17 05:50:00,
2013-06-17 01:56:00,61.3,59.0,29.90,ESE,115,2.0,2.0,92,0.00,,,0.00,meteohub,2013-06-17 05:56:00,
2013-06-17 02:01:00,61.3,59.0,29.90,East,91,1.0,2.0,92,0.00,,,0.00,meteohub,2013-06-17 06:01:00,
2013-06-17 02:06:00,61.3,59.0,29.90,East,86,1.0,2.0,92,0.00,,,0.00,meteohub,2013-06-17 06:06:00,
2013-06-17 02:11:00,61.5,59.2,29.90,ESE,105,1.0,2.0,92,0.00,,,0.00,meteohub,2013-06-17 06:11:00,
2013-06-17 02:16:00,61.5,59.2,29.90,East,94,0.0,2.0,92,0.00,,,0.00,meteohub,2013-06-17 06:16:00,
2013-06-17 02:22:00,61.7,59.0,29.90,ESE,118,0.0,2.0,91,0.00,,,0.00,meteohub,2013-06-17 06:22:00,
2013-06-17 02:27:00,61.9,59.2,29.90,SE,129,1.0,2.0,91,0.00,,,0.00,meteohub,2013-06-17 06:27:00,
2013-06-17 02:32:00,62.2,59.2,29.90,East,99,1.0,3.0,90,0.00,,,0.00,meteohub,2013-06-17 06:32:00,
2013-06-17 02:37:00,62.6,59.4,29.90,ESE,122,0.0,3.0,89,0.00,,,0.00,meteohub,2013-06-17 06:37:00,
2013-06-17 02:42:00,62.4,59.2,29.90,ESE,122,0.0,3.0,89,0.00,,,0.00,meteohub,2013-06-17 06:42:00,
2013-06-17 02:47:00,62.1,58.8,29.90,ESE,123,1.0,3.0,89,0.00,,,0.00,meteohub,2013-06-17 06:47:00,
2013-06-17 02:52:00,61.9,59.0,29.90,ESE,108,1.0,2.0,90,0.00,,,0.00,meteohub,2013-06-17 06:52:00,
2013-06-17 02:57:00,61.7,58.8,29.90,East,94,1.0,2.0,90,0.00,,,0.00,meteohub,2013-06-17 06:57:00,
2013-06-17 03:02:00,61.5,58.6,29.90,ESE,113,1.0,2.0,90,0.00,,,0.00,meteohub,2013-06-17 07:02:00,
2013-06-17 03:07:00,61.2,58.5,29.89,ESE,111,0.0,2.0,91,0.00,,,0.00,meteohub,2013-06-17 07:07:00,
2013-06-17 03:12:00,61.0,58.3,29.89,ESE,110,0.0,2.0,91,0.00,,,0.00,meteohub,2013-06-17 07:12:00,
2013-06-17 03:17:00,61.0,58.6,29.89,ESE,110,1.0,1.0,92,0.00,,,0.00,meteohub,2013-06-17 07:17:00,
2013-06-17 03:22:00,60.6,58.3,29.90,East,94,1.0,2.0,92,0.00,,,0.00,meteohub,2013-06-17 07:22:00,
2013-06-17 03:27:00,60.6,58.3,29.90,East,95,0.0,2.0,92,0.00,,,0.00,meteohub,2013-06-17 07:27:00,
2013-06-17 03:32:00,60.3,57.9,29.90,East,95,0.0,2.0,92,0.00,,,0.00,meteohub,2013-06-17 07:32:00,
2013-06-17 03:37:00,60.1,57.7,29.89,East,96,0.0,1.0,92,0.00,,,0.00,meteohub,2013-06-17 07:37:00,
2013-06-17 03:42:00,59.7,57.7,29.89,East,94,0.0,0.0,93,0.00,,,0.00,meteohub,2013-06-17 07:42:00,
2013-06-17 03:47:00,59.5,57.6,29.91,NNW,342,5.0,0.0,93,0.00,,,0.00,meteohub,2013-06-17 07:47:00,
2013-06-17 03:52:00,59.4,57.6,29.90,NNW,328,0.0,12.0,94,0.00,,,0.00,meteohub,2013-06-17 07:52:00,
2013-06-17 03:57:00,59.9,58.1,29.91,North,359,2.0,12.0,94,0.00,,,0.00,meteohub,2013-06-17 07:57:00,
2013-06-17 04:02:00,60.4,58.6,29.91,NNE,18,3.0,12.0,94,0.00,,,0.00,meteohub,2013-06-17 08:02:00,
2013-06-17 04:07:00,61.0,59.2,29.90,NNW,342,3.0,8.0,94,0.00,,,0.00,meteohub,2013-06-17 08:07:00,
2013-06-17 04:12:00,61.3,59.4,29.90,North,353,0.0,6.0,93,0.00,,,0.00,meteohub,2013-06-17 08:12:00,
2013-06-17 04:17:00,61.3,59.4,29.90,North,1,2.0,6.0,93,0.00,,,0.00,meteohub,2013-06-17 08:17:00,
2013-06-17 04:22:00,61.3,59.4,29.90,North,349,0.0,6.0,93,0.00,,,0.00,meteohub,2013-06-17 08:22:00,
2013-06-17 04:27:00,61.3,59.4,29.90,North,349,1.0,5.0,93,0.00,,,0.00,meteohub,2013-06-17 08:27:00,
2013-06-17 04:32:00,61.5,59.5,29.90,West,263,1.0,4.0,93,0.00,,,0.00,meteohub,2013-06-17 08:32:00,
2013-06-17 04:37:00,61.7,59.9,29.91,SSW,211,1.0,3.0,94,0.00,,,0.00,meteohub,2013-06-17 08:37:00,
2013-06-17 04:42:00,61.3,59.4,29.91,North,0,0.0,3.0,93,0.00,,,0.00,meteohub,2013-06-17 08:42:00,
2013-06-17 04:48:00,61.2,59.2,29.91,WSW,237,2.0,3.0,93,0.00,,,0.00,meteohub,2013-06-17 08:48:00,
2013-06-17 04:53:00,61.0,59.0,29.91,SSW,203,0.0,2.0,93,0.00,,,0.00,meteohub,2013-06-17 08:53:00,
2013-06-17 04:58:00,60.6,58.6,29.91,SSW,203,0.0,2.0,93,0.00,,,0.00,meteohub,2013-06-17 08:58:00,
2013-06-17 05:03:00,60.4,58.6,29.91,SSW,204,1.0,2.0,94,0.00,,,0.00,meteohub,2013-06-17 09:03:00,
2013-06-17 05:08:00,60.4,59.0,29.91,WSW,248,0.0,1.0,95,0.00,,,0.00,meteohub,2013-06-17 09:08:00,
2013-06-17 05:13:00,60.3,58.5,29.91,WSW,248,0.0,2.0,94,0.00,,,0.00,meteohub,2013-06-17 09:13:00,
2013-06-17 05:19:00,60.3,58.8,29.91,SSW,203,0.0,2.0,95,0.00,,,0.00,meteohub,2013-06-17 09:19:00,
2013-06-17 05:24:00,60.3,58.5,29.91,SSW,203,0.0,2.0,94,0.00,,,0.00,meteohub,2013-06-17 09:24:00,
2013-06-17 05:29:00,60.3,58.8,29.91,SSW,203,0.0,2.0,95,0.00,,,0.00,meteohub,2013-06-17 09:29:00,
2013-06-17 05:34:00,60.4,59.4,29.91,South,188,5.0,5.0,96,0.00,,,0.00,meteohub,2013-06-17 09:34:00,
2013-06-17 05:39:00,60.6,59.2,29.91,SSE,156,2.0,6.0,95,0.00,,,0.00,meteohub,2013-06-17 09:39:00,
2013-06-17 05:44:00,60.6,58.8,29.91,SW,232,1.0,7.0,94,0.00,,,0.00,meteohub,2013-06-17 09:44:00,
2013-06-17 05:49:00,60.4,58.6,29.91,SW,229,0.0,7.0,94,0.00,,,0.00,meteohub,2013-06-17 09:49:00,
2013-06-17 05:55:00,60.1,58.6,29.91,SE,139,0.0,7.0,95,0.00,,,0.00,meteohub,2013-06-17 09:55:00,
2013-06-17 06:00:00,59.9,58.5,29.91,SE,140,0.0,2.0,95,0.00,,,0.00,meteohub,2013-06-17 10:00:00,
2013-06-17 06:05:00,59.7,58.3,29.91,SE,139,0.0,1.0,95,0.00,,,0.00,meteohub,2013-06-17 10:05:00,
2013-06-17 06:10:00,59.4,57.9,29.91,SE,140,0.0,1.0,95,0.00,,,0.00,meteohub,2013-06-17 10:10:00,
2013-06-17 06:15:00,59.4,57.9,29.91,SE,140,0.0,0.0,95,0.00,,,0.00,meteohub,2013-06-17 10:15:00,
2013-06-17 06:20:00,59.2,57.7,29.91,SE,139,0.0,0.0,95,0.00,,,0.00,meteohub,2013-06-17 10:20:00,
2013-06-17 06:25:00,59.2,58.1,29.91,SE,140,0.0,1.0,96,0.00,,,0.00,meteohub,2013-06-17 10:25:00,
2013-06-17 06:31:00,59.2,57.7,29.91,SE,139,1.0,1.0,95,0.00,,,0.00,meteohub,2013-06-17 10:31:00,
2013-06-17 06:36:00,59.7,58.6,29.91,SE,132,1.0,1.0,96,0.00,,,0.00,meteohub,2013-06-17 10:36:00,
2013-06-17 06:41:00,60.1,59.0,29.91,SSW,207,2.0,4.0,96,0.00,,,0.00,meteohub,2013-06-17 10:41:00,
2013-06-17 06:46:00,61.0,59.9,29.91,ESE,121,1.0,6.0,96,0.00,,,0.00,meteohub,2013-06-17 10:46:00,
2013-06-17 06:51:00,61.3,59.9,29.91,ESE,121,0.0,6.0,95,0.00,,,0.00,meteohub,2013-06-17 10:51:00,
2013-06-17 06:56:00,61.5,59.7,29.91,ESE,119,1.0,6.0,94,0.00,,,0.00,meteohub,2013-06-17 10:56:00,
2013-06-17 07:01:00,62.1,60.3,29.91,South,169,0.0,2.0,94,0.00,,,0.00,meteohub,2013-06-17 11:01:00,
2013-06-17 07:07:00,62.4,60.4,29.91,SE,143,1.0,2.0,93,0.00,,,0.00,meteohub,2013-06-17 11:07:00,
2013-06-17 07:12:00,63.0,60.6,29.91,South,183,4.0,4.0,92,0.00,,,0.00,meteohub,2013-06-17 11:12:00,
2013-06-17 07:17:00,63.3,61.0,29.91,SSE,165,3.0,5.0,92,0.00,,,0.00,meteohub,2013-06-17 11:17:00,
2013-06-17 07:22:00,63.9,61.2,29.91,SSE,152,3.0,5.0,91,0.00,,,0.00,meteohub,2013-06-17 11:22:00,
2013-06-17 07:27:00,64.0,61.3,29.91,SE,130,1.0,5.0,91,0.00,,,0.00,meteohub,2013-06-17 11:27:00,
2013-06-17 07:32:00,64.6,61.5,29.91,SSE,150,0.0,5.0,90,0.00,,,0.00,meteohub,2013-06-17 11:32:00,
2013-06-17 07:37:00,65.1,62.1,29.91,SE,131,1.0,4.0,90,0.00,,,0.00,meteohub,2013-06-17 11:37:00,
2013-06-17 07:42:00,65.7,62.2,29.91,SSW,205,2.0,3.0,89,0.00,,,0.00,meteohub,2013-06-17 11:42:00,
2013-06-17 07:47:00,65.7,62.1,29.91,SSW,195,2.0,6.0,88,0.00,,,0.00,meteohub,2013-06-17 11:47:00,
2013-06-17 07:52:00,66.0,62.4,29.91,South,179,1.0,6.0,88,0.00,,,0.00,meteohub,2013-06-17 11:52:00,
2013-06-17 07:57:00,66.6,62.6,29.91,South,174,3.0,6.0,87,0.00,,,0.00,meteohub,2013-06-17 11:57:00,
2013-06-17 08:02:00,66.7,62.8,29.91,SE,146,5.0,5.0,87,0.00,,,0.00,meteohub,2013-06-17 12:02:00,
2013-06-17 08:07:00,66.9,62.6,29.91,SSE,152,3.0,6.0,86,0.00,,,0.00,meteohub,2013-06-17 12:07:00,
2013-06-17 08:12:00,66.7,62.4,29.91,SSW,208,2.0,6.0,86,0.00,,,0.00,meteohub,2013-06-17 12:12:00,
2013-06-17 08:17:00,66.6,62.6,29.91,SW,216,1.0,6.0,87,0.00,,,0.00,meteohub,2013-06-17 12:17:00,
2013-06-17 08:22:00,66.9,63.0,29.91,SE,139,3.0,5.0,87,0.00,,,0.00,meteohub,2013-06-17 12:22:00,
2013-06-17 08:27:00,67.5,63.9,29.91,ESE,110,2.0,4.0,88,0.00,,,0.00,meteohub,2013-06-17 12:27:00,
2013-06-17 08:32:00,68.2,63.9,29.91,SW,217,1.0,4.0,86,0.00,,,0.00,meteohub,2013-06-17 12:32:00,
2013-06-17 08:37:00,69.3,64.9,29.91,SSE,166,2.0,4.0,86,0.00,,,0.00,meteohub,2013-06-17 12:37:00,
2013-06-17 08:42:00,70.0,64.6,29.91,SSW,199,3.0,3.0,83,0.00,,,0.00,meteohub,2013-06-17 12:42:00,
2013-06-17 08:47:00,70.2,64.4,29.91,South,191,4.0,5.0,82,0.00,,,0.00,meteohub,2013-06-17 12:47:00,
2013-06-17 08:52:00,70.5,64.0,29.92,SSW,203,1.0,5.0,80,0.00,,,0.00,meteohub,2013-06-17 12:52:00,
2013-06-17 08:57:00,71.1,64.6,29.92,South,172,2.0,5.0,80,0.00,,,0.00,meteohub,2013-06-17 12:57:00,
2013-06-17 09:02:00,71.4,64.6,29.92,SSW,201,1.0,5.0,79,0.00,,,0.00,meteohub,2013-06-17 13:02:00,
2013-06-17 09:07:00,72.0,65.1,29.93,SSE,166,0.0,4.0,79,0.00,,,0.00,meteohub,2013-06-17 13:07:00,
2013-06-17 09:12:00,73.0,65.8,29.94,North,357,2.0,4.0,78,0.00,,,0.00,meteohub,2013-06-17 13:12:00,
2013-06-17 09:17:00,72.5,64.6,29.94,NNW,345,2.0,3.0,76,0.00,,,0.00,meteohub,2013-06-17 13:17:00,
2013-06-17 09:22:00,72.1,64.9,29.94,NNW,330,2.0,5.0,78,0.00,,,0.00,meteohub,2013-06-17 13:22:00,
2013-06-17 09:27:00,72.0,64.8,29.94,North,354,0.0,6.0,78,0.00,,,0.00,meteohub,2013-06-17 13:27:00,
2013-06-17 09:32:00,72.1,64.6,29.94,SW,228,0.0,6.0,77,0.00,,,0.00,meteohub,2013-06-17 13:32:00,
2013-06-17 09:37:00,72.9,64.8,29.94,WNW,295,1.0,6.0,76,0.00,,,0.00,meteohub,2013-06-17 13:37:00,
2013-06-17 09:42:00,73.2,63.7,29.94,WNW,284,1.0,3.0,72,0.00,,,0.00,meteohub,2013-06-17 13:42:00,
2013-06-17 09:47:00,73.9,64.4,29.94,NNE,26,1.0,3.0,72,0.00,,,0.00,meteohub,2013-06-17 13:47:00,
2013-06-17 09:52:00,74.7,64.6,29.94,ENE,63,1.0,3.0,71,0.00,,,0.00,meteohub,2013-06-17 13:52:00,
2013-06-17 09:57:00,75.4,64.0,29.93,WSW,242,0.0,2.0,68,0.00,,,0.00,meteohub,2013-06-17 13:57:00,
2013-06-17 10:02:00,76.3,64.9,29.93,SW,228,2.0,2.0,68,0.00,,,0.00,meteohub,2013-06-17 14:02:00,
2013-06-17 10:07:00,76.5,64.8,29.93,SSW,211,2.0,3.0,67,0.00,,,0.00,meteohub,2013-06-17 14:07:00,
2013-06-17 10:12:00,76.6,64.0,29.93,South,188,1.0,3.0,65,0.00,,,0.00,meteohub,2013-06-17 14:12:00,
2013-06-17 10:17:00,77.2,64.0,29.93,WSW,243,0.0,3.0,64,0.00,,,0.00,meteohub,2013-06-17 14:17:00,
2013-06-17 10:23:00,77.7,64.6,29.93,SSW,198,2.0,3.0,64,0.00,,,0.00,meteohub,2013-06-17 14:23:00,
2013-06-17 10:28:00,77.7,64.6,29.93,WSW,239,1.0,3.0,64,0.00,,,0.00,meteohub,2013-06-17 14:28:00,
2013-06-17 10:33:00,77.7,64.9,29.93,SE,146,0.0,4.0,65,0.00,,,0.00,meteohub,2013-06-17 14:33:00,
2013-06-17 10:38:00,77.7,64.0,29.93,SW,216,4.0,6.0,63,0.00,,,0.00,meteohub,2013-06-17 14:38:00,
2013-06-17 10:43:00,77.7,63.7,29.93,SSW,201,5.0,6.0,62,0.00,,,0.00,meteohub,2013-06-17 14:43:00,
2013-06-17 10:48:00,77.5,63.9,29.93,West,259,5.0,9.0,63,0.00,,,0.00,meteohub,2013-06-17 14:48:00,
2013-06-17 10:53:00,77.5,64.4,29.93,SSW,209,8.0,9.0,64,0.00,,,0.00,meteohub,2013-06-17 14:53:00,
2013-06-17 10:59:00,77.4,64.2,29.93,SW,233,6.0,9.0,64,0.00,,,0.00,meteohub,2013-06-17 14:59:00,
2013-06-17 11:04:00,77.0,62.6,29.93,WSW,253,5.0,9.0,61,0.00,,,0.00,meteohub,2013-06-17 15:04:00,
2013-06-17 11:09:00,76.8,61.9,29.93,West,270,5.0,9.0,60,0.00,,,0.00,meteohub,2013-06-17 15:09:00,
2013-06-17 11:14:00,77.2,62.6,29.93,SSW,212,5.0,9.0,61,0.00,,,0.00,meteohub,2013-06-17 15:14:00,
2013-06-17 11:19:00,77.4,62.8,29.93,SW,226,10.0,10.0,61,0.00,,,0.00,meteohub,2013-06-17 15:19:00,
2013-06-17 11:24:00,77.7,62.8,29.93,WSW,250,6.0,10.0,60,0.00,,,0.00,meteohub,2013-06-17 15:24:00,
2013-06-17 11:30:00,77.9,61.5,29.93,WSW,253,8.0,12.0,57,0.00,,,0.00,meteohub,2013-06-17 15:30:00,
2013-06-17 11:35:00,77.5,61.5,29.94,West,277,8.0,12.0,58,0.00,,,0.00,meteohub,2013-06-17 15:35:00,
2013-06-17 11:40:00,77.0,61.2,29.94,WNW,287,4.0,11.0,58,0.00,,,0.00,meteohub,2013-06-17 15:40:00,
2013-06-17 11:45:00,76.5,61.0,29.91,SW,228,2.0,11.0,59,0.00,,,0.00,meteohub,2013-06-17 15:45:00,
2013-06-17 11:50:00,76.6,62.2,29.92,SW,232,4.0,9.0,61,0.00,,,0.00,meteohub,2013-06-17 15:50:00,
2013-06-17 11:55:00,77.2,62.2,29.91,SW,236,6.0,7.0,60,0.00,,,0.00,meteohub,2013-06-17 15:55:00,
2013-06-17 12:01:00,77.5,62.6,29.91,West,259,7.0,8.0,60,0.00,,,0.00,meteohub,2013-06-17 16:01:00,
2013-06-17 12:06:00,78.3,62.2,29.91,SW,222,5.0,10.0,58,0.00,,,0.00,meteohub,2013-06-17 16:06:00,
2013-06-17 12:11:00,78.6,59.5,29.91,WSW,248,11.0,11.0,52,0.00,,,0.00,meteohub,2013-06-17 16:11:00,
2013-06-17 12:16:00,79.0,61.0,29.91,WSW,250,9.0,12.0,54,0.00,,,0.00,meteohub,2013-06-17 16:16:00,
2013-06-17 12:21:00,79.0,60.4,29.91,WSW,253,7.0,12.0,53,0.00,,,0.00,meteohub,2013-06-17 16:21:00,
2013-06-17 12:26:00,79.3,60.3,29.91,West,273,8.0,13.0,52,0.00,,,0.00,meteohub,2013-06-17 16:26:00,
2013-06-17 12:32:00,79.3,60.3,29.90,West,269,6.0,13.0,52,0.00,,,0.00,meteohub,2013-06-17 16:32:00,
2013-06-17 12:37:00,79.9,60.1,29.90,West,270,5.0,13.0,51,0.00,,,0.00,meteohub,2013-06-17 16:37:00,
2013-06-17 12:42:00,80.1,60.3,29.90,WNW,284,3.0,13.0,51,0.00,,,0.00,meteohub,2013-06-17 16:42:00,
2013-06-17 12:47:00,80.6,60.8,29.91,SW,224,5.0,13.0,51,0.00,,,0.00,meteohub,2013-06-17 16:47:00,
2013-06-17 12:52:00,80.8,59.2,29.91,WSW,256,10.0,13.0,48,0.00,,,0.00,meteohub,2013-06-17 16:52:00,
2013-06-17 12:57:00,81.0,60.1,29.91,WSW,240,9.0,13.0,49,0.00,,,0.00,meteohub,2013-06-17 16:57:00,
2013-06-17 13:02:00,81.0,58.8,29.90,WSW,245,9.0,13.0,47,0.00,,,0.00,meteohub,2013-06-17 17:02:00,
2013-06-17 13:07:00,81.0,55.8,29.91,West,261,7.0,13.0,42,0.00,,,0.00,meteohub,2013-06-17 17:07:00,
2013-06-17 13:12:00,81.1,56.5,29.90,West,266,6.0,13.0,43,0.00,,,0.00,meteohub,2013-06-17 17:12:00,
2013-06-17 13:17:00,81.3,58.6,29.90,West,266,9.0,13.0,46,0.00,,,0.00,meteohub,2013-06-17 17:17:00,
2013-06-17 13:22:00,81.7,57.0,29.90,West,277,5.0,12.0,43,0.00,,,0.00,meteohub,2013-06-17 17:22:00,
2013-06-17 13:27:00,81.7,57.0,29.90,WNW,286,10.0,14.0,43,0.00,,,0.00,meteohub,2013-06-17 17:27:00,
2013-06-17 13:32:00,81.7,57.0,29.90,NW,309,7.0,14.0,43,0.00,,,0.00,meteohub,2013-06-17 17:32:00,
2013-06-17 13:37:00,81.7,57.6,29.90,West,270,10.0,14.0,44,0.00,,,0.00,meteohub,2013-06-17 17:37:00,
2013-06-17 13:42:00,81.7,56.3,29.90,West,278,6.0,14.0,42,0.00,,,0.00,meteohub,2013-06-17 17:42:00,
2013-06-17 13:47:00,81.7,57.6,29.90,West,271,6.0,14.0,44,0.00,,,0.00,meteohub,2013-06-17 17:47:00,
2013-06-17 13:52:00,81.9,56.5,29.90,NW,312,7.0,14.0,42,0.00,,,0.00,meteohub,2013-06-17 17:52:00,
2013-06-17 13:57:00,81.9,56.5,29.90,West,271,7.0,15.0,42,0.00,,,0.00,meteohub,2013-06-17 17:57:00,
2013-06-17 14:02:00,82.0,56.7,29.90,West,266,10.0,15.0,42,0.00,,,0.00,meteohub,2013-06-17 18:02:00,
2013-06-17 14:07:00,81.9,55.9,29.89,West,268,6.0,15.0,41,0.00,,,0.00,meteohub,2013-06-17 18:07:00,
2013-06-17 14:12:00,81.9,57.2,29.89,WSW,257,11.0,14.0,43,0.00,,,0.00,meteohub,2013-06-17 18:12:00,
2013-06-17 14:17:00,82.0,55.4,29.90,WNW,288,11.0,14.0,40,0.00,,,0.00,meteohub,2013-06-17 18:17:00,
2013-06-17 14:22:00,82.0,57.4,29.89,WSW,256,9.0,13.0,43,0.00,,,0.00,meteohub,2013-06-17 18:22:00,
2013-06-17 14:27:00,82.2,57.6,29.90,WSW,242,8.0,15.0,43,0.00,,,0.00,meteohub,2013-06-17 18:27:00,
2013-06-17 14:32:00,82.4,57.7,29.89,WSW,257,10.0,15.0,43,0.00,,,0.00,meteohub,2013-06-17 18:32:00,
2013-06-17 14:37:00,82.4,55.6,29.89,WNW,284,11.0,16.0,40,0.00,,,0.00,meteohub,2013-06-17 18:37:00,
2013-06-17 14:42:00,82.2,55.6,29.89,West,271,7.0,16.0,40,0.00,,,0.00,meteohub,2013-06-17 18:42:00,
2013-06-17 14:47:00,82.2,54.9,29.89,West,259,13.0,15.0,39,0.00,,,0.00,meteohub,2013-06-17 18:47:00,
2013-06-17 14:52:00,82.2,56.8,29.89,WNW,301,7.0,16.0,42,0.00,,,0.00,meteohub,2013-06-17 18:52:00,
2013-06-17 14:57:00,82.6,57.2,29.89,WNW,293,11.0,16.0,42,0.00,,,0.00,meteohub,2013-06-17 18:57:00,
2013-06-17 15:02:00,82.8,55.9,29.89,West,270,11.0,16.0,40,0.00,,,0.00,meteohub,2013-06-17 19:02:00,
2013-06-17 15:07:00,82.8,55.2,29.89,West,263,13.0,14.0,39,0.00,,,0.00,meteohub,2013-06-17 19:07:00,
2013-06-17 15:12:00,82.8,57.4,29.88,West,264,3.0,16.0,42,0.00,,,0.00,meteohub,2013-06-17 19:12:00,
2013-06-17 15:17:00,82.8,56.7,29.88,WSW,253,10.0,16.0,41,0.00,,,0.00,meteohub,2013-06-17 19:17:00,
2013-06-17 15:22:00,82.8,57.4,29.88,West,278,11.0,16.0,42,0.00,,,0.00,meteohub,2013-06-17 19:22:00,
2013-06-17 15:27:00,82.6,56.5,29.88,West,262,8.0,14.0,41,0.00,,,0.00,meteohub,2013-06-17 19:27:00,
2013-06-17 15:32:00,82.6,57.2,29.88,WNW,290,6.0,14.0,42,0.00,,,0.00,meteohub,2013-06-17 19:32:00,
2013-06-17 15:37:00,82.6,57.2,29.88,WNW,298,14.0,14.0,42,0.00,,,0.00,meteohub,2013-06-17 19:37:00,
2013-06-17 15:42:00,82.2,56.8,29.88,West,259,6.0,14.0,42,0.00,,,0.00,meteohub,2013-06-17 19:42:00,
2013-06-17 15:48:00,82.4,57.7,29.88,WSW,256,9.0,14.0,43,0.00,,,0.00,meteohub,2013-06-17 19:48:00,
2013-06-17 15:53:00,82.6,57.7,29.88,WSW,253,7.0,14.0,43,0.00,,,0.00,meteohub,2013-06-17 19:53:00,
2013-06-17 15:58:00,82.2,58.1,29.88,WNW,289,6.0,14.0,44,0.00,,,0.00,meteohub,2013-06-17 19:58:00,
2013-06-17 16:03:00,82.2,57.6,29.88,West,276,11.0,14.0,43,0.00,,,0.00,meteohub,2013-06-17 20:03:00,
2013-06-17 16:08:00,82.0,56.7,29.88,WNW,283,16.0,16.0,42,0.00,,,0.00,meteohub,2013-06-17 20:08:00,
2013-06-17 16:13:00,81.9,55.9,29.88,West,267,9.0,15.0,41,0.00,,,0.00,meteohub,2013-06-17 20:13:00,
2013-06-17 16:19:00,82.0,56.7,29.88,WSW,253,5.0,17.0,42,0.00,,,0.00,meteohub,2013-06-17 20:19:00,
2013-06-17 16:24:00,82.0,57.9,29.88,West,264,6.0,17.0,44,0.00,,,0.00,meteohub,2013-06-17 20:24:00,
2013-06-17 16:29:00,81.9,56.5,29.88,West,273,10.0,16.0,42,0.00,,,0.00,meteohub,2013-06-17 20:29:00,
2013-06-17 16:34:00,81.7,57.0,29.88,WNW,286,10.0,16.0,43,0.00,,,0.00,meteohub,2013-06-17 20:34:00,
2013-06-17 16:39:00,81.9,57.2,29.88,West,264,8.0,16.0,43,0.00,,,0.00,meteohub,2013-06-17 20:39:00,
2013-06-17 16:44:00,82.0,59.2,29.88,West,270,7.0,16.0,46,0.00,,,0.00,meteohub,2013-06-17 20:44:00,
2013-06-17 16:50:00,82.4,60.8,29.88,West,269,9.0,16.0,48,0.00,,,0.00,meteohub,2013-06-17 20:50:00,
2013-06-17 16:55:00,82.0,59.2,29.88,WNW,293,12.0,16.0,46,0.00,,,0.00,meteohub,2013-06-17 20:55:00,
2013-06-17 17:00:00,81.9,59.7,29.88,WNW,297,9.0,12.0,47,0.00,,,0.00,meteohub,2013-06-17 21:00:00,
2013-06-17 17:05:00,81.3,59.2,29.87,WNW,297,5.0,13.0,47,0.00,,,0.00,meteohub,2013-06-17 21:05:00,
2013-06-17 17:10:00,81.3,58.6,29.87,West,271,6.0,17.0,46,0.00,,,0.00,meteohub,2013-06-17 21:10:00,
2013-06-17 17:16:00,81.3,58.6,29.87,WNW,284,8.0,17.0,46,0.00,,,0.00,meteohub,2013-06-17 21:16:00,
2013-06-17 17:21:00,81.3,59.2,29.87,WNW,297,9.0,15.0,47,0.00,,,0.00,meteohub,2013-06-17 21:21:00,
2013-06-17 17:26:00,81.1,59.0,29.87,NW,311,7.0,15.0,47,0.00,,,0.00,meteohub,2013-06-17 21:26:00,
2013-06-17 17:31:00,81.0,58.3,29.87,WNW,295,5.0,13.0,46,0.00,,,0.00,meteohub,2013-06-17 21:31:00,
2013-06-17 17:36:00,81.1,59.0,29.87,WNW,289,6.0,12.0,47,0.00,,,0.00,meteohub,2013-06-17 21:36:00,
2013-06-17 17:41:00,81.3,59.7,29.87,WNW,288,9.0,10.0,48,0.00,,,0.00,meteohub,2013-06-17 21:41:00,
2013-06-17 17:47:00,81.1,58.5,29.87,NW,304,10.0,12.0,46,0.00,,,0.00,meteohub,2013-06-17 21:47:00,
2013-06-17 17:52:00,80.8,58.6,29.86,WNW,285,6.0,12.0,47,0.00,,,0.00,meteohub,2013-06-17 21:52:00,
2013-06-17 17:57:00,80.8,58.6,29.86,West,281,8.0,12.0,47,0.00,,,0.00,meteohub,2013-06-17 21:57:00,
2013-06-17 18:02:00,80.8,58.6,29.86,West,281,8.0,12.0,47,0.00,,,0.00,meteohub,2013-06-17 22:02:00,
2013-06-17 18:07:00,80.8,59.9,29.86,West,267,8.0,11.0,49,0.00,,,0.00,meteohub,2013-06-17 22:07:00,
2013-06-17 18:12:00,80.8,58.6,29.86,WNW,295,7.0,10.0,47,0.00,,,0.00,meteohub,2013-06-17 22:12:00,
2013-06-17 18:17:00,80.8,60.4,29.86,WNW,295,4.0,10.0,50,0.00,,,0.00,meteohub,2013-06-17 22:17:00,
2013-06-17 18:22:00,81.0,60.1,29.86,West,281,7.0,9.0,49,0.00,,,0.00,meteohub,2013-06-17 22:22:00,
2013-06-17 18:27:00,80.8,60.4,29.86,WNW,301,5.0,9.0,50,0.00,,,0.00,meteohub,2013-06-17 22:27:00,
2013-06-17 18:32:00,80.2,58.8,29.86,WNW,291,6.0,9.0,48,0.00,,,0.00,meteohub,2013-06-17 22:32:00,
2013-06-17 18:37:00,80.2,59.4,29.86,West,278,6.0,9.0,49,0.00,,,0.00,meteohub,2013-06-17 22:37:00,
2013-06-17 18:42:00,80.2,59.4,29.86,WNW,295,5.0,9.0,49,0.00,,,0.00,meteohub,2013-06-17 22:42:00,
2013-06-17 18:47:00,80.2,59.9,29.86,WNW,285,4.0,9.0,50,0.00,,,0.00,meteohub,2013-06-17 22:47:00,
2013-06-17 18:53:00,80.2,60.4,29.86,WNW,290,5.0,8.0,51,0.00,,,0.00,meteohub,2013-06-17 22:53:00,
2013-06-17 18:58:00,80.4,60.1,29.86,West,281,5.0,8.0,50,0.00,,,0.00,meteohub,2013-06-17 22:58:00,
2013-06-17 19:03:00,80.4,60.6,29.86,WNW,297,5.0,7.0,51,0.00,,,0.00,meteohub,2013-06-17 23:03:00,
2013-06-17 19:08:00,80.4,60.6,29.86,West,280,6.0,7.0,51,0.00,,,0.00,meteohub,2013-06-17 23:08:00,
2013-06-17 19:13:00,80.4,60.6,29.86,WNW,282,3.0,7.0,51,0.00,,,0.00,meteohub,2013-06-17 23:13:00,
2013-06-17 19:18:00,80.2,60.4,29.86,West,266,5.0,7.0,51,0.00,,,0.00,meteohub,2013-06-17 23:18:00,
2013-06-17 19:23:00,79.9,60.1,29.86,WSW,256,3.0,7.0,51,0.00,,,0.00,meteohub,2013-06-17 23:23:00,
2013-06-17 19:29:00,79.7,60.4,29.86,WSW,256,3.0,7.0,52,0.00,,,0.00,meteohub,2013-06-17 23:29:00,
2013-06-17 19:34:00,79.7,61.5,29.86,WSW,247,3.0,6.0,54,0.00,,,0.00,meteohub,2013-06-17 23:34:00,
2013-06-17 19:39:00,79.9,61.7,29.86,WSW,248,1.0,5.0,54,0.00,,,0.00,meteohub,2013-06-17 23:39:00,
2013-06-17 19:44:00,79.9,62.2,29.85,WSW,250,1.0,5.0,55,0.00,,,0.00,meteohub,2013-06-17 23:44:00,
2013-06-17 19:49:00,79.5,61.9,29.85,SW,236,2.0,4.0,55,0.00,,,0.00,meteohub,2013-06-17 23:49:00,
2013-06-17 19:54:00,79.5,61.9,29.86,WSW,245,2.0,2.0,55,0.00,,,0.00,meteohub,2013-06-17 23:54:00,
2013-06-17 19:59:00,79.2,61.5,29.86,SW,236,2.0,2.0,55,0.00,,,0.00,meteohub,2013-06-17 23:59:00,
2013-06-17 20:05:00,78.8,61.3,29.86,WSW,248,2.0,3.0,55,0.00,,,0.00,meteohub,2013-06-18 00:05:00,
2013-06-17 20:10:00,78.6,61.2,29.86,WSW,245,2.0,3.0,55,0.00,,,0.00,meteohub,2013-06-18 00:10:00,
2013-06-17 20:15:00,78.4,61.9,29.86,WSW,258,2.0,3.0,57,0.00,,,0.00,meteohub,2013-06-18 00:15:00,
2013-06-17 20:20:00,78.3,61.7,29.86,WSW,253,2.0,2.0,57,0.00,,,0.00,meteohub,2013-06-18 00:20:00,
2013-06-17 20:25:00,78.1,62.6,29.86,WSW,256,1.0,2.0,59,0.00,,,0.00,meteohub,2013-06-18 00:25:00,
2013-06-17 20:30:00,77.5,63.9,29.86,WSW,256,0.0,2.0,63,0.00,,,0.00,meteohub,2013-06-18 00:30:00,
2013-06-17 20:36:00,77.0,63.5,29.86,WSW,256,0.0,2.0,63,0.00,,,0.00,meteohub,2013-06-18 00:36:00,
2013-06-17 20:41:00,76.8,64.2,29.87,NW,321,2.0,4.0,65,0.00,,,0.00,meteohub,2013-06-18 00:41:00,
2013-06-17 20:46:00,76.3,64.0,29.88,WNW,297,1.0,4.0,66,0.00,,,0.00,meteohub,2013-06-18 00:46:00,
2013-06-17 20:51:00,76.5,63.9,29.88,West,281,0.0,4.0,65,0.00,,,0.00,meteohub,2013-06-18 00:51:00,
2013-06-17 20:56:00,76.8,62.8,29.87,NNW,338,2.0,3.0,62,0.00,,,0.00,meteohub,2013-06-18 00:56:00,
2013-06-17 21:01:00,76.6,62.6,29.88,WNW,283,2.0,4.0,62,0.00,,,0.00,meteohub,2013-06-18 01:01:00,
2013-06-17 21:06:00,76.6,63.5,29.88,WNW,287,0.0,4.0,64,0.00,,,0.00,meteohub,2013-06-18 01:06:00,
2013-06-17 21:12:00,76.5,63.0,29.88,West,266,1.0,4.0,63,0.00,,,0.00,meteohub,2013-06-18 01:12:00,
2013-06-17 21:17:00,76.3,64.6,29.88,WSW,256,2.0,2.0,67,0.00,,,0.00,meteohub,2013-06-18 01:17:00,
2013-06-17 21:22:00,75.7,63.1,29.88,NNE,29,8.0,8.0,65,0.00,,,0.00,meteohub,2013-06-18 01:22:00,
2013-06-17 21:27:00,75.0,61.5,29.88,NNW,342,2.0,8.0,63,0.00,,,0.00,meteohub,2013-06-18 01:27:00,
2013-06-17 21:32:00,74.3,60.8,29.87,NNE,29,4.0,10.0,63,0.00,,,0.00,meteohub,2013-06-18 01:32:00,
2013-06-17 21:37:00,73.8,60.4,29.87,ENE,68,2.0,10.0,63,0.00,,,0.00,meteohub,2013-06-18 01:37:00,
2013-06-17 21:42:00,73.2,59.9,29.87,NNW,345,1.0,6.0,63,0.00,,,0.00,meteohub,2013-06-18 01:42:00,
2013-06-17 21:47:00,73.0,60.1,29.88,North,352,1.0,5.0,64,0.00,,,0.00,meteohub,2013-06-18 01:47:00,
2013-06-17 21:52:00,72.5,60.1,29.88,NNE,33,2.0,4.0,65,0.00,,,0.00,meteohub,2013-06-18 01:52:00,
2013-06-17 21:57:00,72.1,60.1,29.89,NNE,14,4.0,4.0,66,0.00,,,0.00,meteohub,2013-06-18 01:57:00,
2013-06-17 22:02:00,72.0,59.5,29.89,NW,318,6.0,9.0,65,0.00,,,0.00,meteohub,2013-06-18 02:02:00,
2013-06-17 22:07:00,71.4,59.0,29.90,NNE,26,12.0,12.0,65,0.00,,,0.00,meteohub,2013-06-18 02:07:00,
2013-06-17 22:12:00,71.1,57.7,29.90,NNE,26,7.0,14.0,63,0.00,,,0.00,meteohub,2013-06-18 02:12:00,
2013-06-17 22:17:00,71.1,57.7,29.90,NNW,336,3.0,14.0,63,0.00,,,0.00,meteohub,2013-06-18 02:17:00,
2013-06-17 22:22:00,70.9,57.7,29.91,North,1,3.0,14.0,63,0.00,,,0.00,meteohub,2013-06-18 02:22:00,
2013-06-17 22:27:00,70.5,57.7,29.91,North,8,5.0,12.0,64,0.00,,,0.00,meteohub,2013-06-18 02:27:00,
2013-06-17 22:32:00,70.0,57.7,29.91,NE,54,6.0,11.0,65,0.00,,,0.00,meteohub,2013-06-18 02:32:00,
2013-06-17 22:37:00,69.6,57.7,29.91,ENE,71,2.0,14.0,66,0.00,,,0.00,meteohub,2013-06-18 02:37:00,
2013-06-17 22:42:00,69.3,57.9,29.91,ENE,75,3.0,14.0,67,0.00,,,0.00,meteohub,2013-06-18 02:42:00,
2013-06-17 22:47:00,68.9,57.9,29.91,NNE,12,2.0,14.0,68,0.00,,,0.00,meteohub,2013-06-18 02:47:00,
2013-06-17 22:52:00,68.5,57.6,29.92,NNE,23,2.0,7.0,68,0.00,,,0.00,meteohub,2013-06-18 02:52:00,
2013-06-17 22:57:00,68.2,57.2,29.92,NNE,18,3.0,7.0,68,0.00,,,0.00,meteohub,2013-06-18 02:57:00,
2013-06-17 23:02:00,67.6,57.6,29.92,NE,36,1.0,6.0,70,0.00,,,0.00,meteohub,2013-06-18 03:02:00,
2013-06-17 23:07:00,67.3,57.2,29.92,NE,40,2.0,6.0,70,0.00,,,0.00,meteohub,2013-06-18 03:07:00,
2013-06-17 23:12:00,66.9,57.2,29.92,ENE,71,2.0,6.0,71,0.00,,,0.00,meteohub,2013-06-18 03:12:00,
2013-06-17 23:17:00,66.7,57.4,29.92,East,79,3.0,6.0,72,0.00,,,0.00,meteohub,2013-06-18 03:17:00,
2013-06-17 23:22:00,66.6,57.6,29.91,ESE,105,4.0,6.0,73,0.00,,,0.00,meteohub,2013-06-18 03:22:00,
2013-06-17 23:27:00,66.4,57.9,29.91,NE,54,2.0,5.0,74,0.00,,,0.00,meteohub,2013-06-18 03:27:00,
2013-06-17 23:32:00,66.0,57.9,29.91,ESE,113,1.0,4.0,75,0.00,,,0.00,meteohub,2013-06-18 03:32:00,
2013-06-17 23:37:00,65.8,58.1,29.91,SE,125,5.0,5.0,76,0.00,,,0.00,meteohub,2013-06-18 03:37:00,
2013-06-17 23:42:00,65.7,58.3,29.91,ENE,71,1.0,7.0,77,0.00,,,0.00,meteohub,2013-06-18 03:42:00,
2013-06-17 23:47:00,65.3,58.3,29.91,SE,127,3.0,7.0,78,0.00,,,0.00,meteohub,2013-06-18 03:47:00,
2013-06-17 23:52:00,65.1,58.1,29.92,East,94,1.0,7.0,78,0.00,,,0.00,meteohub,2013-06-18 03:52:00,
2013-06-17 23:58:00,65.1,58.1,29.92,East,94,1.0,6.0,78,0.00,,,0.00,meteohub,2013-06-18 03:58:00,